createdAt,value
2023-04-17T00:01:18.550Z,10.20
2023-04-17T00:03:47.258Z,10.20
2023-04-17T00:06:16.379Z,10.20
2023-04-17T00:08:44.576Z,10.20
2023-04-17T00:11:12.598Z,10.20
2023-04-17T00:13:44.485Z,10.20
2023-04-17T00:16:13.771Z,10.20
2023-04-17T00:18:43.202Z,10.20
2023-04-17T00:21:11.510Z,10.20
2023-04-17T00:23:39.580Z,10.30
2023-04-17T00:26:07.574Z,10.20
2023-04-17T00:28:35.561Z,10.20
2023-04-17T00:31:04.590Z,10.20
2023-04-17T00:33:33.412Z,10.20
2023-04-17T00:36:02.781Z,10.20
2023-04-17T00:38:30.823Z,10.20
2023-04-17T00:40:58.842Z,10.20
2023-04-17T00:43:27.363Z,10.20
2023-04-17T00:45:55.654Z,10.20
2023-04-17T00:48:24.482Z,10.20
2023-04-17T00:50:53.842Z,10.20
2023-04-17T00:53:23.623Z,10.30
2023-04-17T00:55:53.084Z,10.20
2023-04-17T00:58:21.181Z,10.20
2023-04-17T01:00:50.001Z,10.20
2023-04-17T01:03:18.305Z,10.20
2023-04-17T01:05:50.630Z,10.20
2023-04-17T01:08:19.042Z,10.10
2023-04-17T01:10:48.409Z,10.10
2023-04-17T01:13:16.424Z,10.20
2023-04-17T01:15:44.791Z,10.20
2023-04-17T01:18:12.921Z,10.20
2023-04-17T01:20:41.056Z,10.20
2023-04-17T01:23:09.372Z,10.20
2023-04-17T01:25:38.866Z,10.20
2023-04-17T01:28:06.864Z,10.20
2023-04-17T01:30:35.337Z,10.20
2023-04-17T01:33:03.487Z,10.20
2023-04-17T01:35:31.495Z,10.10
2023-04-17T01:37:59.514Z,10.20
2023-04-17T01:40:27.507Z,10.10
2023-04-17T01:42:56.872Z,10.10
2023-04-17T01:45:24.860Z,10.10
2023-04-17T01:47:53.157Z,10.00
2023-04-17T01:50:21.336Z,10.00
2023-04-17T01:52:49.353Z,10.00
2023-04-17T01:55:17.373Z,10.00
2023-04-17T01:57:45.366Z,10.00
2023-04-17T02:00:15.607Z,10.00
2023-04-17T02:02:43.778Z,10.00
2023-04-17T02:05:11.886Z,10.00
2023-04-17T02:07:39.859Z,10.00
2023-04-17T02:10:08.962Z,10.00
2023-04-17T02:12:36.948Z,10.00
2023-04-17T02:15:05.398Z,9.90
2023-04-17T02:17:34.853Z,9.90
2023-04-17T02:20:06.800Z,9.90
2023-04-17T02:22:34.791Z,9.90
2023-04-17T02:25:02.940Z,9.90
2023-04-17T02:27:31.154Z,9.90
2023-04-17T02:29:59.183Z,9.90
2023-04-17T02:32:28.458Z,9.80
2023-04-17T02:34:57.872Z,9.80
2023-04-17T02:37:25.868Z,9.80
2023-04-17T02:39:54.618Z,9.80
2023-04-17T02:42:22.741Z,9.80
2023-04-17T02:44:50.713Z,9.80
2023-04-17T02:47:18.707Z,9.80
2023-04-17T02:49:46.795Z,9.80
2023-04-17T02:52:16.237Z,9.80
2023-04-17T02:54:44.218Z,9.80
2023-04-17T02:57:12.236Z,9.80
2023-04-17T02:59:40.249Z,9.80
2023-04-17T03:02:08.269Z,9.80
2023-04-17T03:04:36.343Z,9.80
2023-04-17T03:07:04.493Z,9.80
2023-04-17T03:09:35.017Z,9.80
2023-04-17T03:12:03.075Z,9.80
2023-04-17T03:14:31.263Z,9.90
2023-04-17T03:16:59.605Z,9.90
2023-04-17T03:19:27.658Z,9.90
2023-04-17T03:21:55.659Z,9.90
2023-04-17T03:24:23.665Z,9.80
2023-04-17T03:26:53.014Z,9.80
2023-04-17T03:29:21.040Z,9.70
2023-04-17T03:31:49.060Z,9.70
2023-04-17T03:34:18.632Z,9.70
2023-04-17T03:36:46.636Z,9.70
2023-04-17T03:39:14.831Z,9.70
2023-04-17T03:41:42.838Z,9.70
2023-04-17T03:44:12.693Z,9.70
2023-04-17T03:46:40.757Z,9.60
2023-04-17T03:49:08.734Z,9.70
2023-04-17T03:51:36.755Z,9.70
2023-04-17T03:54:04.861Z,9.70
2023-04-17T03:56:32.958Z,9.70
2023-04-17T03:59:00.989Z,9.70
2023-04-17T04:01:30.376Z,9.70
2023-04-17T04:03:58.452Z,9.70
2023-04-17T04:06:29.873Z,9.70
2023-04-17T04:08:58.023Z,9.60
2023-04-17T04:11:26.070Z,9.60
2023-04-17T04:13:54.031Z,9.50
2023-04-17T04:16:22.570Z,9.60
2023-04-17T04:18:51.935Z,9.60
2023-04-17T04:21:19.929Z,9.70
2023-04-17T04:23:49.757Z,9.70
2023-04-17T04:26:17.998Z,9.70
2023-04-17T04:28:47.451Z,9.70
2023-04-17T04:31:18.679Z,9.60
2023-04-17T04:33:46.953Z,9.60
2023-04-17T04:36:20.280Z,9.60
2023-04-17T04:38:49.814Z,9.60
2023-04-17T04:41:19.994Z,9.60
2023-04-17T04:43:48.013Z,9.60
2023-04-17T04:46:16.044Z,9.50
2023-04-17T04:48:44.078Z,9.50
2023-04-17T04:51:12.496Z,9.40
2023-04-17T04:53:41.855Z,9.30
2023-04-17T04:56:09.847Z,9.30
2023-04-17T04:58:38.585Z,9.40
2023-04-17T05:01:07.733Z,9.40
2023-04-17T05:03:37.321Z,9.40
2023-04-17T05:06:05.935Z,9.40
2023-04-17T05:08:33.978Z,9.40
2023-04-17T05:11:03.610Z,9.30
2023-04-17T05:13:31.586Z,9.30
2023-04-17T05:16:01.500Z,9.40
2023-04-17T05:18:29.866Z,9.40
2023-04-17T05:20:57.863Z,9.30
2023-04-17T05:23:26.415Z,9.30
2023-04-17T05:25:54.410Z,9.30
2023-04-17T05:28:23.899Z,9.30
2023-04-17T05:30:52.234Z,9.40
2023-04-17T05:33:20.256Z,9.40
2023-04-17T05:35:48.219Z,9.40
2023-04-17T05:38:16.174Z,9.40
2023-04-17T05:40:44.327Z,9.40
2023-04-17T05:43:13.158Z,9.40
2023-04-17T05:45:42.564Z,9.40
2023-04-17T05:48:10.783Z,9.40
2023-04-17T05:50:38.822Z,9.40
2023-04-17T05:53:06.927Z,9.50
2023-04-17T05:55:34.973Z,9.40
2023-04-17T05:58:10.472Z,9.40
2023-04-17T06:00:52.481Z,9.50
2023-04-17T06:03:21.155Z,9.50
2023-04-17T06:05:49.435Z,9.50
2023-04-17T06:08:17.502Z,9.50
2023-04-17T06:10:46.598Z,9.50
2023-04-17T06:13:14.598Z,9.50
2023-04-17T06:15:42.595Z,9.50
2023-04-17T06:18:12.006Z,9.50
2023-04-17T06:20:40.244Z,9.40
2023-04-17T06:23:08.688Z,9.50
2023-04-17T06:25:36.772Z,9.50
2023-04-17T06:28:04.924Z,9.50
2023-04-17T06:30:32.899Z,9.50
2023-04-17T06:33:00.961Z,9.50
2023-04-17T06:35:30.758Z,9.60
2023-04-17T06:37:58.785Z,9.60
2023-04-17T06:40:26.902Z,9.60
2023-04-17T06:42:55.035Z,9.50
2023-04-17T06:45:23.032Z,9.50
2023-04-17T06:47:51.104Z,9.50
2023-04-17T06:50:19.578Z,9.50
2023-04-17T06:52:48.932Z,9.60
2023-04-17T06:55:17.000Z,9.60
2023-04-17T06:57:45.018Z,9.70
2023-04-17T07:00:14.318Z,9.70
2023-04-17T07:02:42.397Z,9.80
2023-04-17T07:05:11.142Z,9.80
2023-04-17T07:07:39.840Z,9.90
2023-04-17T07:10:10.138Z,9.90
2023-04-17T07:12:38.145Z,10.00
2023-04-17T07:15:06.741Z,10.10
2023-04-17T07:17:34.790Z,10.20
2023-04-17T07:20:02.800Z,10.30
2023-04-17T07:22:30.820Z,10.40
2023-04-17T07:24:58.833Z,10.40
2023-04-17T07:27:28.287Z,10.40
2023-04-17T07:29:56.472Z,10.40
2023-04-17T07:32:25.263Z,10.40
2023-04-17T07:34:53.502Z,10.40
2023-04-17T07:37:21.511Z,10.30
2023-04-17T07:39:51.046Z,10.30
2023-04-17T07:42:19.036Z,10.30
2023-04-17T07:44:49.957Z,10.30
2023-04-17T07:47:18.167Z,10.40
2023-04-17T07:49:48.907Z,10.50
2023-04-17T07:52:18.087Z,10.50
2023-04-17T07:54:46.193Z,10.60
2023-04-17T07:57:15.049Z,10.60
2023-04-17T07:59:43.129Z,10.60
2023-04-17T08:02:12.623Z,10.60
2023-04-17T08:04:41.712Z,10.50
2023-04-17T08:07:11.283Z,10.60
2023-04-17T08:09:40.248Z,10.60
2023-04-17T08:12:09.070Z,10.60
2023-04-17T08:14:37.130Z,10.60
2023-04-17T08:17:07.487Z,10.70
2023-04-17T08:19:37.085Z,10.80
2023-04-17T08:22:07.213Z,10.80
2023-04-17T08:24:35.233Z,10.90
2023-04-17T08:27:03.605Z,10.90
2023-04-17T08:29:31.614Z,11.00
2023-04-17T08:32:13.408Z,11.00
2023-04-17T08:34:43.418Z,11.10
2023-04-17T08:37:11.410Z,11.20
2023-04-17T08:39:39.399Z,11.20
2023-04-17T08:42:14.633Z,11.10
2023-04-17T08:44:45.897Z,11.10
2023-04-17T08:47:14.631Z,11.00
2023-04-17T08:49:45.953Z,11.00
2023-04-17T08:52:14.478Z,11.00
2023-04-17T08:54:42.469Z,11.10
2023-04-17T08:57:10.493Z,11.10
2023-04-17T08:59:38.515Z,11.10
2023-04-17T09:02:08.637Z,11.30
2023-04-17T09:04:42.089Z,11.40
2023-04-17T09:07:12.927Z,11.50
2023-04-17T09:09:51.645Z,11.50
2023-04-17T09:12:20.369Z,11.50
2023-04-17T09:14:48.444Z,11.40
2023-04-17T09:17:18.359Z,11.30
2023-04-17T09:20:09.800Z,11.30
2023-04-17T09:22:41.133Z,11.30
2023-04-17T09:25:18.053Z,11.20
2023-04-17T09:27:46.727Z,11.10
2023-04-17T09:30:15.392Z,11.00
2023-04-17T09:32:43.540Z,10.90
2023-04-17T09:35:12.085Z,10.90
2023-04-17T09:37:50.977Z,10.90
2023-04-17T09:40:20.424Z,10.80
2023-04-17T09:42:59.487Z,10.80
2023-04-17T09:45:33.243Z,10.80
2023-04-17T09:48:01.471Z,10.80
2023-04-17T09:50:29.796Z,10.80
2023-04-17T09:52:59.224Z,10.80
2023-04-17T09:55:29.886Z,10.70
2023-04-17T09:57:59.845Z,10.80
2023-04-17T10:00:29.301Z,10.80
2023-04-17T10:02:59.606Z,10.90
2023-04-17T10:05:31.558Z,10.90
2023-04-17T10:08:01.651Z,11.10
2023-04-17T10:10:33.347Z,11.10
2023-04-17T10:13:04.251Z,11.20
2023-04-17T10:15:33.794Z,11.20
2023-04-17T10:18:20.054Z,11.20
2023-04-17T10:20:48.658Z,11.20
2023-04-17T10:23:32.440Z,11.20
2023-04-17T10:26:46.053Z,11.20
2023-04-17T10:29:14.299Z,11.20
2023-04-17T10:32:15.472Z,11.20
2023-04-17T10:34:44.078Z,11.20
2023-04-17T10:37:15.252Z,11.20
2023-04-17T10:39:52.675Z,11.20
2023-04-17T10:42:22.256Z,11.20
2023-04-17T10:44:51.519Z,11.10
2023-04-17T10:47:22.273Z,11.00
2023-04-17T10:49:51.986Z,11.00
2023-04-17T10:52:44.700Z,11.00
2023-04-17T10:55:17.414Z,10.90
2023-04-17T10:57:57.358Z,10.90
2023-04-17T11:00:33.746Z,10.90
2023-04-17T11:03:02.544Z,10.90
2023-04-17T11:05:32.258Z,10.80
2023-04-17T11:08:00.650Z,10.80
2023-04-17T11:10:30.249Z,10.70
2023-04-17T11:12:58.228Z,10.60
2023-04-17T11:15:30.364Z,10.60
2023-04-17T11:17:59.498Z,10.50
2023-04-17T11:20:29.877Z,10.50
2023-04-17T11:22:58.228Z,10.40
2023-04-17T11:25:31.581Z,10.40
2023-04-17T11:28:01.151Z,10.40
2023-04-17T11:30:31.205Z,10.40
2023-04-17T11:33:00.499Z,10.40
2023-04-17T11:35:33.215Z,10.30
2023-04-17T11:38:08.786Z,10.30
2023-04-17T11:40:38.318Z,10.40
2023-04-17T11:43:09.941Z,10.40
2023-04-17T11:45:38.804Z,10.40
2023-04-17T11:48:07.174Z,10.40
2023-04-17T11:50:36.224Z,10.30
2023-04-17T11:53:05.037Z,10.20
2023-04-17T11:55:33.416Z,10.20
2023-04-17T11:58:06.421Z,10.20
2023-04-17T12:00:35.169Z,10.20
2023-04-17T12:03:04.989Z,10.10
2023-04-17T12:05:33.461Z,10.10
2023-04-17T12:08:03.000Z,10.20
2023-04-17T12:10:41.171Z,10.20
2023-04-17T12:13:11.174Z,10.20
2023-04-17T12:15:39.751Z,10.20
2023-04-17T12:18:09.258Z,10.20
2023-04-17T12:20:37.867Z,10.10
2023-04-17T12:23:07.068Z,10.00
2023-04-17T12:25:35.429Z,10.00
2023-04-17T12:28:04.977Z,10.00
2023-04-17T12:30:36.132Z,10.00
2023-04-17T12:33:06.709Z,9.90
2023-04-17T12:35:34.772Z,10.00
2023-04-17T12:38:02.755Z,9.90
2023-04-17T12:40:30.881Z,9.90
2023-04-17T12:42:59.144Z,9.90
2023-04-17T12:45:28.116Z,9.90
2023-04-17T12:47:57.913Z,9.90
2023-04-17T12:50:26.269Z,9.90
2023-04-17T12:52:54.365Z,10.00
2023-04-17T12:55:22.756Z,9.90
2023-04-17T12:57:50.804Z,9.80
2023-04-17T13:00:19.933Z,9.90
2023-04-17T13:02:48.216Z,9.90
2023-04-17T13:05:17.782Z,10.10
2023-04-17T13:07:46.294Z,10.10
2023-04-17T13:10:14.331Z,10.20
2023-04-17T13:12:42.977Z,10.10
2023-04-17T13:15:13.370Z,10.00
2023-04-17T13:17:41.542Z,9.80
2023-04-17T13:20:10.661Z,9.80
2023-04-17T13:22:40.422Z,9.90
2023-04-17T13:25:09.298Z,9.90
2023-04-17T13:27:38.223Z,9.90
2023-04-17T13:30:07.438Z,9.90
2023-04-17T13:32:35.810Z,9.90
2023-04-17T13:35:05.252Z,10.00
2023-04-17T13:37:33.284Z,10.10
2023-04-17T13:40:05.137Z,10.10
2023-04-17T13:42:33.400Z,10.20
2023-04-17T13:45:01.391Z,10.10
2023-04-17T13:47:29.522Z,10.10
2023-04-17T13:49:57.593Z,10.00
2023-04-17T13:52:25.643Z,10.00
2023-04-17T13:54:53.700Z,10.00
2023-04-17T13:57:23.174Z,9.90
2023-04-17T13:59:51.195Z,9.90
2023-04-17T14:02:19.550Z,9.80
2023-04-17T14:04:47.880Z,9.90
2023-04-17T14:07:16.097Z,9.90
2023-04-17T14:09:44.106Z,10.00
2023-04-17T14:12:12.330Z,10.00
2023-04-17T14:14:41.772Z,10.00
2023-04-17T14:17:09.854Z,10.00
2023-04-17T14:19:37.893Z,10.00
2023-04-17T14:22:05.963Z,10.00
2023-04-17T14:24:33.983Z,10.00
2023-04-17T14:27:02.748Z,10.00
2023-04-17T14:29:30.767Z,9.90
2023-04-17T14:32:00.199Z,9.90
2023-04-17T14:34:28.172Z,9.90
2023-04-17T14:36:58.001Z,9.90
2023-04-17T14:39:26.375Z,9.90
2023-04-17T14:41:54.387Z,9.80
2023-04-17T14:44:22.367Z,9.70
2023-04-17T14:46:50.553Z,9.80
2023-04-17T14:49:20.534Z,9.90
2023-04-17T14:51:48.654Z,10.00
2023-04-17T14:54:16.728Z,10.00
2023-04-17T14:56:44.782Z,10.00
2023-04-17T14:59:12.960Z,10.10
2023-04-17T15:01:41.138Z,10.10
2023-04-17T15:04:09.340Z,10.10
2023-04-17T15:06:39.293Z,10.10
2023-04-17T15:09:07.510Z,10.10
2023-04-17T15:11:36.268Z,10.00
2023-04-17T15:14:04.263Z,9.90
2023-04-17T15:16:32.302Z,9.90
2023-04-17T15:19:00.354Z,10.00
2023-04-17T15:21:28.399Z,10.00
2023-04-17T15:23:58.039Z,9.90
2023-04-17T15:26:27.306Z,10.00
2023-04-17T15:28:55.327Z,9.90
2023-04-17T15:31:23.558Z,10.00
2023-04-17T15:33:51.577Z,10.00
2023-04-17T15:36:19.710Z,10.00
2023-04-17T15:38:47.689Z,9.90
2023-04-17T15:41:17.093Z,9.90
2023-04-17T15:43:45.112Z,9.80
2023-04-17T15:46:13.255Z,9.70
2023-04-17T15:48:41.308Z,9.70
2023-04-17T15:51:09.456Z,9.70
2023-04-17T15:53:37.555Z,9.70
2023-04-17T15:56:06.821Z,9.70
2023-04-17T15:58:36.340Z,9.70
2023-04-17T16:01:04.443Z,9.70
2023-04-17T16:03:32.633Z,9.80
2023-04-17T16:06:00.857Z,9.80
2023-04-17T16:08:28.852Z,9.80
2023-04-17T16:10:56.908Z,9.80
2023-04-17T16:13:25.004Z,9.70
2023-04-17T16:15:54.403Z,9.60
2023-04-17T16:18:22.435Z,9.60
2023-04-17T16:20:50.544Z,9.60
2023-04-17T16:23:18.529Z,9.60
2023-04-17T16:25:46.511Z,9.60
2023-04-17T16:28:14.535Z,9.60
2023-04-17T16:30:42.557Z,9.60
2023-04-17T16:33:11.907Z,9.60
2023-04-17T16:35:40.468Z,9.60
2023-04-17T16:38:08.596Z,9.60
2023-04-17T16:40:36.602Z,9.50
2023-04-17T16:43:04.613Z,9.50
2023-04-17T16:45:32.598Z,9.50
2023-04-17T16:48:00.726Z,9.50
2023-04-17T16:50:30.223Z,9.50
2023-04-17T16:52:58.193Z,9.50
2023-04-17T16:55:26.419Z,9.40
2023-04-17T16:57:55.595Z,9.40
2023-04-17T17:00:23.901Z,9.50
2023-04-17T17:02:52.064Z,9.50
2023-04-17T17:05:20.193Z,9.50
2023-04-17T17:07:49.858Z,9.50
2023-04-17T17:10:17.933Z,9.50
2023-04-17T17:12:46.096Z,9.40
2023-04-17T17:15:14.082Z,9.40
2023-04-17T17:17:43.024Z,9.50
2023-04-17T17:20:11.705Z,9.50
2023-04-17T17:22:39.749Z,9.50
2023-04-17T17:25:10.069Z,9.50
2023-04-17T17:27:38.050Z,9.50
2023-04-17T17:30:06.957Z,9.60
2023-04-17T17:32:34.964Z,9.50
2023-04-17T17:35:02.954Z,9.40
2023-04-17T17:37:31.244Z,9.40
2023-04-17T17:39:59.232Z,9.30
2023-04-17T17:42:28.590Z,9.30
2023-04-17T17:44:56.751Z,9.30
2023-04-17T17:47:24.729Z,9.30
2023-04-17T17:49:52.877Z,9.30
2023-04-17T17:52:20.943Z,9.20
2023-04-17T17:54:48.951Z,9.20
2023-04-17T17:57:16.943Z,9.20
2023-04-17T17:59:46.384Z,9.20
2023-04-17T18:02:14.542Z,9.20
2023-04-17T18:04:42.747Z,9.20
2023-04-17T18:07:10.863Z,9.20
2023-04-17T18:09:38.879Z,9.20
2023-04-17T18:12:07.937Z,9.20
2023-04-17T18:14:36.786Z,9.20
2023-04-17T18:17:08.158Z,9.20
2023-04-17T18:19:40.735Z,9.10
2023-04-17T18:22:08.921Z,9.20
2023-04-17T18:24:36.955Z,9.20
2023-04-17T18:27:05.017Z,9.20
2023-04-17T18:29:34.540Z,9.20
2023-04-17T18:32:02.558Z,9.20
2023-04-17T18:34:31.998Z,9.20
2023-04-17T18:37:00.544Z,9.10
2023-04-17T18:39:28.580Z,9.20
2023-04-17T18:41:57.011Z,9.20
2023-04-17T18:44:25.062Z,9.10
2023-04-17T18:46:53.079Z,9.20
2023-04-17T18:49:21.092Z,9.20
2023-04-17T18:51:50.484Z,9.30
2023-04-17T18:54:19.364Z,9.20
2023-04-17T18:56:47.429Z,9.20
2023-04-17T18:59:15.813Z,9.20
2023-04-17T19:01:43.892Z,9.30
2023-04-17T19:04:12.094Z,9.30
2023-04-17T19:06:40.386Z,9.30
2023-04-17T19:09:09.745Z,9.30
2023-04-17T19:11:37.734Z,9.20
2023-04-17T19:14:05.727Z,9.20
2023-04-17T19:16:33.909Z,9.20
2023-04-17T19:19:02.088Z,9.20
2023-04-17T19:21:31.755Z,9.20
2023-04-17T19:23:59.799Z,9.20
2023-04-17T19:26:29.223Z,9.30
2023-04-17T19:28:58.159Z,9.30
2023-04-17T19:31:26.271Z,9.30
2023-04-17T19:33:57.241Z,9.30
2023-04-17T19:36:27.381Z,9.30
2023-04-17T19:38:55.870Z,9.20
2023-04-17T19:41:23.885Z,9.20
2023-04-17T19:43:54.124Z,9.20
2023-04-17T19:46:23.949Z,9.20
2023-04-17T19:48:52.452Z,9.20
2023-04-17T19:51:20.613Z,9.30
2023-04-17T19:53:48.906Z,9.30
2023-04-17T19:56:17.142Z,9.30
2023-04-17T19:58:45.346Z,9.30
2023-04-17T20:01:14.841Z,9.30
2023-04-17T20:03:45.409Z,9.30
2023-04-17T20:06:13.974Z,9.30
2023-04-17T20:08:42.018Z,9.30
2023-04-17T20:11:12.074Z,9.30
2023-04-17T20:13:40.395Z,9.30
2023-04-17T20:16:08.651Z,9.30
2023-04-17T20:18:38.178Z,9.30
2023-04-17T20:21:07.167Z,9.30
2023-04-17T20:23:35.343Z,9.30
2023-04-17T20:26:03.512Z,9.40
2023-04-17T20:28:31.669Z,9.40
2023-04-17T20:30:59.728Z,9.40
2023-04-17T20:33:27.816Z,9.50
2023-04-17T20:35:57.334Z,9.40
2023-04-17T20:38:25.680Z,9.40
2023-04-17T20:40:54.132Z,9.40
2023-04-17T20:43:22.222Z,9.40
2023-04-17T20:45:50.950Z,9.40
2023-04-17T20:48:20.513Z,9.40
2023-04-17T20:50:48.733Z,9.50
2023-04-17T20:53:18.336Z,9.50
2023-04-17T20:55:47.117Z,9.50
2023-04-17T20:58:15.253Z,9.50
2023-04-17T21:00:54.424Z,9.50
2023-04-17T21:03:30.142Z,9.40
2023-04-17T21:05:58.537Z,9.40
2023-04-17T21:08:28.026Z,9.40
2023-04-17T21:10:56.095Z,9.50
2023-04-17T21:13:24.737Z,9.40
2023-04-17T21:15:52.830Z,9.50
2023-04-17T21:18:20.881Z,9.40
2023-04-17T21:20:48.912Z,9.40
2023-04-17T21:23:16.961Z,9.40
2023-04-17T21:25:46.579Z,9.40
2023-04-17T21:28:14.597Z,9.30
2023-04-17T21:30:42.660Z,9.30
2023-04-17T21:33:10.673Z,9.30
2023-04-17T21:35:39.412Z,9.30
2023-04-17T21:38:07.486Z,9.30
2023-04-17T21:40:37.194Z,9.30
2023-04-17T21:43:06.683Z,9.40
2023-04-17T21:45:34.833Z,9.30
2023-04-17T21:48:03.348Z,9.40
2023-04-17T21:50:31.823Z,9.30
2023-04-17T21:52:59.812Z,9.30
2023-04-17T21:55:28.123Z,9.30
2023-04-17T21:57:56.111Z,9.30
2023-04-17T22:00:25.666Z,9.30
2023-04-17T22:02:54.056Z,9.30
2023-04-17T22:05:22.339Z,9.30
2023-04-17T22:07:54.964Z,9.30
2023-04-17T22:10:24.169Z,9.30
2023-04-17T22:12:52.306Z,9.30
2023-04-17T22:15:20.713Z,9.30
2023-04-17T22:17:50.658Z,9.30
2023-04-17T22:20:18.804Z,9.30
2023-04-17T22:22:47.615Z,9.30
2023-04-17T22:25:15.769Z,9.30
2023-04-17T22:27:43.841Z,9.30
2023-04-17T22:30:12.296Z,9.30
2023-04-17T22:32:40.449Z,9.30
2023-04-17T22:35:10.924Z,9.20
2023-04-17T22:37:38.961Z,9.20
2023-04-17T22:40:08.557Z,9.20
2023-04-17T22:42:36.576Z,9.30
2023-04-17T22:45:05.080Z,9.20
2023-04-17T22:47:33.150Z,9.30
2023-04-17T22:50:01.181Z,9.30
2023-04-17T22:52:30.640Z,9.20
2023-04-17T22:54:58.856Z,9.20
2023-04-17T22:57:26.889Z,9.20
2023-04-17T22:59:55.214Z,9.20
2023-04-17T23:02:23.332Z,9.20
2023-04-17T23:04:51.540Z,9.10
2023-04-17T23:07:19.588Z,9.10
2023-04-17T23:09:49.049Z,9.10
2023-04-17T23:12:17.062Z,9.10
2023-04-17T23:14:46.010Z,9.20
2023-04-17T23:17:14.035Z,9.10
2023-04-17T23:19:42.196Z,9.10
2023-04-17T23:22:10.793Z,9.10
2023-04-17T23:24:38.942Z,9.10
2023-04-17T23:27:08.368Z,9.10
2023-04-17T23:29:36.423Z,9.10
2023-04-17T23:32:04.636Z,9.10
2023-04-17T23:34:32.723Z,9.10
2023-04-17T23:37:02.057Z,9.10
2023-04-17T23:39:30.267Z,9.10
2023-04-17T23:42:00.596Z,9.10
2023-04-17T23:44:30.069Z,9.00
2023-04-17T23:46:58.360Z,9.00
2023-04-17T23:49:26.573Z,9.00
2023-04-17T23:51:54.605Z,9.00
2023-04-17T23:54:22.649Z,9.00
2023-04-17T23:56:50.687Z,9.00
2023-04-17T23:59:18.711Z,9.00
